sensor_id;sensor_type;location;lat;lon;timestamp;P1;durP1;ratioP1;P2;durP2;ratioP2
16870;SDS011;8552;48.120;-1.456;2023-05-20T00:00:47;13.57;;;7.70;;
16870;SDS011;8552;48.120;-1.456;2023-05-20T00:03:13;13.32;;;6.88;;
16870;SDS011;8552;48.120;-1.456;2023-05-20T00:05:44;10.95;;;7.13;;
16870;SDS011;8552;48.120;-1.456;2023-05-20T00:08:10;11.90;;;6.90;;
16870;SDS011;8552;48.120;-1.456;2023-05-20T00:10:35;13.63;;;7.22;;
16870;SDS011;8552;48.120;-1.456;2023-05-20T00:13:01;9.98;;;6.55;;
16870;SDS011;8552;48.120;-1.456;2023-05-20T00:15:27;13.60;;;7.60;;
16870;SDS011;8552;48.120;-1.456;2023-05-20T00:17:53;14.65;;;7.35;;
16870;SDS011;8552;48.120;-1.456;2023-05-20T00:20:19;12.73;;;7.05;;
16870;SDS011;8552;48.120;-1.456;2023-05-20T00:22:45;10.90;;;7.15;;
16870;SDS011;8552;48.120;-1.456;2023-05-20T00:25:11;12.13;;;7.05;;
16870;SDS011;8552;48.120;-1.456;2023-05-20T00:27:38;13.52;;;7.45;;
16870;SDS011;8552;48.120;-1.456;2023-05-20T00:30:05;12.85;;;7.47;;
16870;SDS011;8552;48.120;-1.456;2023-05-20T00:32:33;12.48;;;7.32;;
16870;SDS011;8552;48.120;-1.456;2023-05-20T00:34:59;11.10;;;7.63;;
16870;SDS011;8552;48.120;-1.456;2023-05-20T00:37:25;14.30;;;7.25;;
16870;SDS011;8552;48.120;-1.456;2023-05-20T00:39:51;15.60;;;7.25;;
16870;SDS011;8552;48.120;-1.456;2023-05-20T00:42:20;11.48;;;7.07;;
16870;SDS011;8552;48.120;-1.456;2023-05-20T00:44:46;8.88;;;6.82;;
16870;SDS011;8552;48.120;-1.456;2023-05-20T00:47:13;11.18;;;6.90;;
16870;SDS011;8552;48.120;-1.456;2023-05-20T00:49:40;12.27;;;7.68;;
16870;SDS011;8552;48.120;-1.456;2023-05-20T00:52:06;14.80;;;7.32;;
16870;SDS011;8552;48.120;-1.456;2023-05-20T00:54:32;17.67;;;7.35;;
16870;SDS011;8552;48.120;-1.456;2023-05-20T00:56:58;12.60;;;7.97;;
16870;SDS011;8552;48.120;-1.456;2023-05-20T00:59:26;12.80;;;7.85;;
16870;SDS011;8552;48.120;-1.456;2023-05-20T01:01:52;15.60;;;7.93;;
16870;SDS011;8552;48.120;-1.456;2023-05-20T01:04:18;12.95;;;7.95;;
16870;SDS011;8552;48.120;-1.456;2023-05-20T01:06:44;12.75;;;8.25;;
16870;SDS011;8552;48.120;-1.456;2023-05-20T01:09:12;15.35;;;7.75;;
16870;SDS011;8552;48.120;-1.456;2023-05-20T01:11:40;12.88;;;7.70;;
16870;SDS011;8552;48.120;-1.456;2023-05-20T01:14:12;15.30;;;8.23;;
16870;SDS011;8552;48.120;-1.456;2023-05-20T01:16:42;12.30;;;8.00;;
16870;SDS011;8552;48.120;-1.456;2023-05-20T01:19:26;14.35;;;7.47;;
16870;SDS011;8552;48.120;-1.456;2023-05-20T01:22:01;13.98;;;8.05;;
16870;SDS011;8552;48.120;-1.456;2023-05-20T01:24:29;14.23;;;8.52;;
16870;SDS011;8552;48.120;-1.456;2023-05-20T01:26:55;16.48;;;8.68;;
16870;SDS011;8552;48.120;-1.456;2023-05-20T01:29:22;11.77;;;7.85;;
16870;SDS011;8552;48.120;-1.456;2023-05-20T01:31:50;13.70;;;8.43;;
16870;SDS011;8552;48.120;-1.456;2023-05-20T01:34:18;16.67;;;8.52;;
16870;SDS011;8552;48.120;-1.456;2023-05-20T01:36:45;15.50;;;8.57;;
16870;SDS011;8552;48.120;-1.456;2023-05-20T01:39:11;12.80;;;7.78;;
16870;SDS011;8552;48.120;-1.456;2023-05-20T01:41:37;16.50;;;8.95;;
16870;SDS011;8552;48.120;-1.456;2023-05-20T01:44:05;15.63;;;8.23;;
16870;SDS011;8552;48.120;-1.456;2023-05-20T01:46:31;14.68;;;7.57;;
16870;SDS011;8552;48.120;-1.456;2023-05-20T01:48:58;15.05;;;7.93;;
16870;SDS011;8552;48.120;-1.456;2023-05-20T01:51:24;13.32;;;7.78;;
16870;SDS011;8552;48.120;-1.456;2023-05-20T01:53:50;17.75;;;7.30;;
16870;SDS011;8552;48.120;-1.456;2023-05-20T01:56:15;13.80;;;7.38;;
16870;SDS011;8552;48.120;-1.456;2023-05-20T01:58:41;10.13;;;7.05;;
16870;SDS011;8552;48.120;-1.456;2023-05-20T02:01:07;13.15;;;7.93;;
16870;SDS011;8552;48.120;-1.456;2023-05-20T02:03:32;14.05;;;7.38;;
16870;SDS011;8552;48.120;-1.456;2023-05-20T02:05:58;11.25;;;8.27;;
16870;SDS011;8552;48.120;-1.456;2023-05-20T02:08:24;16.50;;;8.40;;
16870;SDS011;8552;48.120;-1.456;2023-05-20T02:10:49;16.60;;;9.50;;
16870;SDS011;8552;48.120;-1.456;2023-05-20T02:13:15;17.65;;;8.85;;
16870;SDS011;8552;48.120;-1.456;2023-05-20T02:15:41;12.13;;;8.38;;
16870;SDS011;8552;48.120;-1.456;2023-05-20T02:18:06;12.63;;;8.57;;
16870;SDS011;8552;48.120;-1.456;2023-05-20T02:20:35;16.80;;;8.95;;
16870;SDS011;8552;48.120;-1.456;2023-05-20T02:23:01;13.02;;;7.95;;
16870;SDS011;8552;48.120;-1.456;2023-05-20T02:25:29;18.95;;;7.75;;
16870;SDS011;8552;48.120;-1.456;2023-05-20T02:27:56;12.18;;;7.90;;
16870;SDS011;8552;48.120;-1.456;2023-05-20T02:30:21;13.85;;;8.50;;
16870;SDS011;8552;48.120;-1.456;2023-05-20T02:32:47;14.73;;;7.72;;
16870;SDS011;8552;48.120;-1.456;2023-05-20T02:35:13;15.70;;;8.70;;
16870;SDS011;8552;48.120;-1.456;2023-05-20T02:37:39;18.48;;;8.43;;
16870;SDS011;8552;48.120;-1.456;2023-05-20T02:40:05;13.40;;;8.02;;
16870;SDS011;8552;48.120;-1.456;2023-05-20T02:42:32;12.27;;;7.50;;
16870;SDS011;8552;48.120;-1.456;2023-05-20T02:44:58;17.02;;;8.77;;
16870;SDS011;8552;48.120;-1.456;2023-05-20T02:47:24;12.15;;;7.55;;
16870;SDS011;8552;48.120;-1.456;2023-05-20T02:49:50;16.63;;;9.20;;
16870;SDS011;8552;48.120;-1.456;2023-05-20T02:52:15;16.17;;;7.93;;
16870;SDS011;8552;48.120;-1.456;2023-05-20T02:54:41;13.00;;;7.97;;
16870;SDS011;8552;48.120;-1.456;2023-05-20T02:57:07;11.73;;;7.38;;
16870;SDS011;8552;48.120;-1.456;2023-05-20T02:59:32;17.98;;;8.95;;
16870;SDS011;8552;48.120;-1.456;2023-05-20T03:01:58;18.02;;;9.40;;
16870;SDS011;8552;48.120;-1.456;2023-05-20T03:04:24;14.48;;;8.90;;
16870;SDS011;8552;48.120;-1.456;2023-05-20T03:06:50;12.40;;;8.18;;
16870;SDS011;8552;48.120;-1.456;2023-05-20T03:09:16;15.23;;;9.13;;
16870;SDS011;8552;48.120;-1.456;2023-05-20T03:11:43;17.17;;;8.93;;
16870;SDS011;8552;48.120;-1.456;2023-05-20T03:14:10;16.77;;;8.20;;
16870;SDS011;8552;48.120;-1.456;2023-05-20T03:16:36;14.63;;;8.80;;
16870;SDS011;8552;48.120;-1.456;2023-05-20T03:19:02;16.02;;;9.75;;
16870;SDS011;8552;48.120;-1.456;2023-05-20T03:21:27;16.95;;;9.27;;
16870;SDS011;8552;48.120;-1.456;2023-05-20T03:23:53;19.92;;;10.35;;
16870;SDS011;8552;48.120;-1.456;2023-05-20T03:26:19;18.85;;;10.18;;
16870;SDS011;8552;48.120;-1.456;2023-05-20T03:28:45;19.13;;;9.43;;
16870;SDS011;8552;48.120;-1.456;2023-05-20T03:31:11;19.10;;;11.00;;
16870;SDS011;8552;48.120;-1.456;2023-05-20T03:33:37;21.42;;;10.88;;
16870;SDS011;8552;48.120;-1.456;2023-05-20T03:36:02;20.05;;;10.50;;
16870;SDS011;8552;48.120;-1.456;2023-05-20T03:38:29;16.50;;;10.18;;
16870;SDS011;8552;48.120;-1.456;2023-05-20T03:40:55;19.20;;;10.82;;
16870;SDS011;8552;48.120;-1.456;2023-05-20T03:43:20;20.63;;;9.75;;
16870;SDS011;8552;48.120;-1.456;2023-05-20T03:45:46;21.85;;;10.55;;
16870;SDS011;8552;48.120;-1.456;2023-05-20T03:48:12;14.07;;;9.15;;
16870;SDS011;8552;48.120;-1.456;2023-05-20T03:50:37;20.73;;;10.45;;
16870;SDS011;8552;48.120;-1.456;2023-05-20T03:53:03;22.92;;;10.75;;
16870;SDS011;8552;48.120;-1.456;2023-05-20T03:55:29;24.02;;;10.85;;
16870;SDS011;8552;48.120;-1.456;2023-05-20T03:57:54;17.85;;;10.13;;
16870;SDS011;8552;48.120;-1.456;2023-05-20T04:00:20;16.10;;;9.50;;
16870;SDS011;8552;48.120;-1.456;2023-05-20T04:02:46;19.08;;;10.85;;
16870;SDS011;8552;48.120;-1.456;2023-05-20T04:05:12;18.90;;;10.60;;
16870;SDS011;8552;48.120;-1.456;2023-05-20T04:07:38;18.30;;;11.00;;
16870;SDS011;8552;48.120;-1.456;2023-05-20T04:10:04;21.42;;;10.85;;
16870;SDS011;8552;48.120;-1.456;2023-05-20T04:12:30;17.67;;;9.35;;
16870;SDS011;8552;48.120;-1.456;2023-05-20T04:14:59;19.90;;;11.27;;
16870;SDS011;8552;48.120;-1.456;2023-05-20T04:17:26;21.02;;;10.00;;
16870;SDS011;8552;48.120;-1.456;2023-05-20T04:19:55;25.15;;;12.65;;
16870;SDS011;8552;48.120;-1.456;2023-05-20T04:22:21;22.55;;;11.70;;
16870;SDS011;8552;48.120;-1.456;2023-05-20T04:24:47;18.88;;;11.55;;
16870;SDS011;8552;48.120;-1.456;2023-05-20T04:27:13;18.58;;;10.95;;
16870;SDS011;8552;48.120;-1.456;2023-05-20T04:29:40;19.95;;;10.80;;
16870;SDS011;8552;48.120;-1.456;2023-05-20T04:32:11;24.40;;;11.68;;
16870;SDS011;8552;48.120;-1.456;2023-05-20T04:34:42;20.35;;;11.65;;
16870;SDS011;8552;48.120;-1.456;2023-05-20T04:37:09;22.10;;;11.02;;
16870;SDS011;8552;48.120;-1.456;2023-05-20T04:39:35;24.88;;;11.98;;
16870;SDS011;8552;48.120;-1.456;2023-05-20T04:42:01;22.50;;;11.07;;
16870;SDS011;8552;48.120;-1.456;2023-05-20T04:44:27;19.75;;;11.32;;
16870;SDS011;8552;48.120;-1.456;2023-05-20T04:46:53;27.73;;;13.48;;
16870;SDS011;8552;48.120;-1.456;2023-05-20T04:49:20;26.23;;;12.15;;
16870;SDS011;8552;48.120;-1.456;2023-05-20T04:51:45;19.77;;;11.82;;
16870;SDS011;8552;48.120;-1.456;2023-05-20T04:54:14;27.02;;;11.98;;
16870;SDS011;8552;48.120;-1.456;2023-05-20T04:56:42;24.00;;;11.63;;
16870;SDS011;8552;48.120;-1.456;2023-05-20T04:59:08;20.42;;;11.75;;
16870;SDS011;8552;48.120;-1.456;2023-05-20T05:01:35;24.63;;;12.65;;
16870;SDS011;8552;48.120;-1.456;2023-05-20T05:04:01;25.15;;;11.43;;
16870;SDS011;8552;48.120;-1.456;2023-05-20T05:06:27;23.98;;;12.63;;
16870;SDS011;8552;48.120;-1.456;2023-05-20T05:08:53;21.45;;;11.25;;
16870;SDS011;8552;48.120;-1.456;2023-05-20T05:11:18;21.05;;;11.10;;
16870;SDS011;8552;48.120;-1.456;2023-05-20T05:13:45;21.00;;;12.65;;
16870;SDS011;8552;48.120;-1.456;2023-05-20T05:16:11;22.13;;;12.10;;
16870;SDS011;8552;48.120;-1.456;2023-05-20T05:18:36;28.40;;;13.73;;
16870;SDS011;8552;48.120;-1.456;2023-05-20T05:21:03;27.83;;;12.13;;
16870;SDS011;8552;48.120;-1.456;2023-05-20T05:23:29;28.10;;;14.30;;
16870;SDS011;8552;48.120;-1.456;2023-05-20T05:25:55;25.30;;;11.43;;
16870;SDS011;8552;48.120;-1.456;2023-05-20T05:28:21;25.08;;;13.63;;
16870;SDS011;8552;48.120;-1.456;2023-05-20T05:30:47;25.73;;;12.48;;
16870;SDS011;8552;48.120;-1.456;2023-05-20T05:33:14;27.50;;;11.68;;
16870;SDS011;8552;48.120;-1.456;2023-05-20T05:35:40;25.63;;;13.07;;
16870;SDS011;8552;48.120;-1.456;2023-05-20T05:38:07;27.92;;;12.82;;
16870;SDS011;8552;48.120;-1.456;2023-05-20T05:40:33;27.88;;;12.30;;
16870;SDS011;8552;48.120;-1.456;2023-05-20T05:42:59;29.95;;;12.27;;
16870;SDS011;8552;48.120;-1.456;2023-05-20T05:45:25;23.65;;;13.30;;
16870;SDS011;8552;48.120;-1.456;2023-05-20T05:47:50;28.30;;;14.43;;
16870;SDS011;8552;48.120;-1.456;2023-05-20T05:50:16;27.40;;;12.63;;
16870;SDS011;8552;48.120;-1.456;2023-05-20T05:52:41;21.92;;;12.82;;
16870;SDS011;8552;48.120;-1.456;2023-05-20T05:55:08;29.02;;;13.73;;
16870;SDS011;8552;48.120;-1.456;2023-05-20T05:57:34;22.67;;;14.13;;
16870;SDS011;8552;48.120;-1.456;2023-05-20T06:00:00;24.90;;;13.05;;
16870;SDS011;8552;48.120;-1.456;2023-05-20T06:02:26;26.17;;;12.43;;
16870;SDS011;8552;48.120;-1.456;2023-05-20T06:04:51;25.50;;;13.55;;
16870;SDS011;8552;48.120;-1.456;2023-05-20T06:07:17;31.88;;;13.90;;
16870;SDS011;8552;48.120;-1.456;2023-05-20T06:09:43;23.77;;;13.27;;
16870;SDS011;8552;48.120;-1.456;2023-05-20T06:12:09;34.42;;;14.68;;
16870;SDS011;8552;48.120;-1.456;2023-05-20T06:14:35;23.75;;;12.18;;
16870;SDS011;8552;48.120;-1.456;2023-05-20T06:17:01;23.23;;;12.55;;
16870;SDS011;8552;48.120;-1.456;2023-05-20T06:19:27;27.73;;;14.00;;
16870;SDS011;8552;48.120;-1.456;2023-05-20T06:21:53;31.13;;;14.30;;
16870;SDS011;8552;48.120;-1.456;2023-05-20T06:24:20;26.45;;;14.88;;
16870;SDS011;8552;48.120;-1.456;2023-05-20T06:26:45;23.75;;;13.02;;
16870;SDS011;8552;48.120;-1.456;2023-05-20T06:29:13;22.33;;;13.40;;
16870;SDS011;8552;48.120;-1.456;2023-05-20T06:31:39;28.42;;;12.85;;
16870;SDS011;8552;48.120;-1.456;2023-05-20T06:34:05;30.13;;;13.57;;
16870;SDS011;8552;48.120;-1.456;2023-05-20T06:36:30;26.38;;;13.75;;
16870;SDS011;8552;48.120;-1.456;2023-05-20T06:38:56;26.80;;;12.18;;
16870;SDS011;8552;48.120;-1.456;2023-05-20T06:41:22;29.17;;;14.98;;
16870;SDS011;8552;48.120;-1.456;2023-05-20T06:43:47;25.25;;;12.82;;
16870;SDS011;8552;48.120;-1.456;2023-05-20T06:46:13;30.08;;;14.80;;
16870;SDS011;8552;48.120;-1.456;2023-05-20T06:48:39;30.13;;;14.55;;
16870;SDS011;8552;48.120;-1.456;2023-05-20T06:51:06;25.08;;;14.25;;
16870;SDS011;8552;48.120;-1.456;2023-05-20T06:53:33;24.35;;;12.90;;
16870;SDS011;8552;48.120;-1.456;2023-05-20T06:55:59;29.15;;;13.90;;
16870;SDS011;8552;48.120;-1.456;2023-05-20T06:58:25;26.42;;;13.90;;
16870;SDS011;8552;48.120;-1.456;2023-05-20T07:00:51;26.23;;;13.25;;
16870;SDS011;8552;48.120;-1.456;2023-05-20T07:03:16;29.38;;;12.27;;
16870;SDS011;8552;48.120;-1.456;2023-05-20T07:05:42;24.52;;;12.93;;
16870;SDS011;8552;48.120;-1.456;2023-05-20T07:08:08;23.58;;;12.57;;
16870;SDS011;8552;48.120;-1.456;2023-05-20T07:10:34;22.17;;;13.52;;
16870;SDS011;8552;48.120;-1.456;2023-05-20T07:12:59;22.35;;;14.05;;
16870;SDS011;8552;48.120;-1.456;2023-05-20T07:15:25;24.02;;;13.70;;
16870;SDS011;8552;48.120;-1.456;2023-05-20T07:17:51;24.73;;;13.95;;
16870;SDS011;8552;48.120;-1.456;2023-05-20T07:20:17;27.17;;;13.93;;
16870;SDS011;8552;48.120;-1.456;2023-05-20T07:22:43;27.92;;;12.75;;
16870;SDS011;8552;48.120;-1.456;2023-05-20T07:25:09;21.98;;;12.63;;
16870;SDS011;8552;48.120;-1.456;2023-05-20T07:27:35;24.67;;;12.38;;
16870;SDS011;8552;48.120;-1.456;2023-05-20T07:30:01;20.90;;;12.40;;
16870;SDS011;8552;48.120;-1.456;2023-05-20T07:32:26;21.45;;;12.90;;
16870;SDS011;8552;48.120;-1.456;2023-05-20T07:34:52;24.10;;;13.68;;
16870;SDS011;8552;48.120;-1.456;2023-05-20T07:37:18;24.67;;;12.95;;
16870;SDS011;8552;48.120;-1.456;2023-05-20T07:39:43;22.92;;;13.48;;
16870;SDS011;8552;48.120;-1.456;2023-05-20T07:42:09;25.02;;;13.43;;
16870;SDS011;8552;48.120;-1.456;2023-05-20T07:44:35;23.00;;;13.18;;
16870;SDS011;8552;48.120;-1.456;2023-05-20T07:47:01;28.35;;;13.07;;
16870;SDS011;8552;48.120;-1.456;2023-05-20T07:49:27;26.73;;;13.77;;
16870;SDS011;8552;48.120;-1.456;2023-05-20T07:51:52;27.02;;;14.13;;
16870;SDS011;8552;48.120;-1.456;2023-05-20T07:54:18;26.65;;;13.27;;
16870;SDS011;8552;48.120;-1.456;2023-05-20T07:56:44;22.92;;;12.60;;
16870;SDS011;8552;48.120;-1.456;2023-05-20T07:59:10;19.35;;;12.80;;
16870;SDS011;8552;48.120;-1.456;2023-05-20T08:01:35;23.00;;;12.93;;
16870;SDS011;8552;48.120;-1.456;2023-05-20T08:04:01;18.08;;;11.40;;
16870;SDS011;8552;48.120;-1.456;2023-05-20T08:06:27;21.90;;;12.20;;
16870;SDS011;8552;48.120;-1.456;2023-05-20T08:08:53;28.45;;;12.20;;
16870;SDS011;8552;48.120;-1.456;2023-05-20T08:11:19;24.55;;;11.93;;
16870;SDS011;8552;48.120;-1.456;2023-05-20T08:13:47;19.45;;;11.18;;
16870;SDS011;8552;48.120;-1.456;2023-05-20T08:16:13;17.17;;;9.45;;
16870;SDS011;8552;48.120;-1.456;2023-05-20T08:18:40;18.33;;;10.07;;
16870;SDS011;8552;48.120;-1.456;2023-05-20T08:21:05;18.45;;;10.25;;
16870;SDS011;8552;48.120;-1.456;2023-05-20T08:23:32;16.67;;;10.20;;
16870;SDS011;8552;48.120;-1.456;2023-05-20T08:25:58;18.50;;;9.82;;
16870;SDS011;8552;48.120;-1.456;2023-05-20T08:28:27;12.57;;;8.52;;
16870;SDS011;8552;48.120;-1.456;2023-05-20T08:30:53;19.50;;;10.00;;
16870;SDS011;8552;48.120;-1.456;2023-05-20T08:33:19;22.52;;;10.18;;
16870;SDS011;8552;48.120;-1.456;2023-05-20T08:35:46;12.93;;;9.43;;
16870;SDS011;8552;48.120;-1.456;2023-05-20T08:38:12;19.15;;;10.25;;
16870;SDS011;8552;48.120;-1.456;2023-05-20T08:40:38;15.48;;;9.25;;
16870;SDS011;8552;48.120;-1.456;2023-05-20T08:43:04;14.82;;;8.65;;
16870;SDS011;8552;48.120;-1.456;2023-05-20T08:45:33;21.98;;;10.02;;
16870;SDS011;8552;48.120;-1.456;2023-05-20T08:48:01;15.15;;;9.50;;
16870;SDS011;8552;48.120;-1.456;2023-05-20T08:50:29;18.40;;;9.02;;
16870;SDS011;8552;48.120;-1.456;2023-05-20T08:52:55;15.95;;;8.95;;
16870;SDS011;8552;48.120;-1.456;2023-05-20T08:55:27;16.58;;;7.25;;
16870;SDS011;8552;48.120;-1.456;2023-05-20T08:58:00;17.60;;;8.80;;
16870;SDS011;8552;48.120;-1.456;2023-05-20T09:00:27;16.52;;;9.07;;
16870;SDS011;8552;48.120;-1.456;2023-05-20T09:02:54;13.57;;;8.18;;
16870;SDS011;8552;48.120;-1.456;2023-05-20T09:05:20;16.52;;;8.35;;
16870;SDS011;8552;48.120;-1.456;2023-05-20T09:07:47;17.35;;;8.88;;
16870;SDS011;8552;48.120;-1.456;2023-05-20T09:10:13;15.02;;;9.18;;
16870;SDS011;8552;48.120;-1.456;2023-05-20T09:12:39;14.20;;;8.00;;
16870;SDS011;8552;48.120;-1.456;2023-05-20T09:15:04;14.60;;;7.68;;
16870;SDS011;8552;48.120;-1.456;2023-05-20T09:17:31;14.45;;;8.60;;
16870;SDS011;8552;48.120;-1.456;2023-05-20T09:20:00;15.48;;;7.95;;
16870;SDS011;8552;48.120;-1.456;2023-05-20T09:22:26;17.88;;;7.93;;
16870;SDS011;8552;48.120;-1.456;2023-05-20T09:24:52;13.23;;;8.02;;
16870;SDS011;8552;48.120;-1.456;2023-05-20T09:27:19;12.20;;;7.53;;
16870;SDS011;8552;48.120;-1.456;2023-05-20T09:29:48;19.15;;;7.88;;
16870;SDS011;8552;48.120;-1.456;2023-05-20T09:32:15;11.38;;;7.13;;
16870;SDS011;8552;48.120;-1.456;2023-05-20T09:34:42;13.70;;;7.05;;
16870;SDS011;8552;48.120;-1.456;2023-05-20T09:37:09;11.38;;;6.78;;
16870;SDS011;8552;48.120;-1.456;2023-05-20T09:39:42;15.63;;;7.57;;
16870;SDS011;8552;48.120;-1.456;2023-05-20T09:42:27;12.05;;;6.82;;
16870;SDS011;8552;48.120;-1.456;2023-05-20T09:45:01;15.10;;;7.55;;
16870;SDS011;8552;48.120;-1.456;2023-05-20T09:47:29;11.60;;;7.13;;
16870;SDS011;8552;48.120;-1.456;2023-05-20T09:49:56;11.95;;;6.65;;
16870;SDS011;8552;48.120;-1.456;2023-05-20T09:52:22;12.00;;;6.43;;
16870;SDS011;8552;48.120;-1.456;2023-05-20T09:54:52;11.43;;;6.18;;
16870;SDS011;8552;48.120;-1.456;2023-05-20T09:57:20;12.70;;;6.07;;
16870;SDS011;8552;48.120;-1.456;2023-05-20T09:59:46;15.05;;;6.68;;
16870;SDS011;8552;48.120;-1.456;2023-05-20T10:02:14;7.75;;;5.85;;
16870;SDS011;8552;48.120;-1.456;2023-05-20T10:04:42;10.88;;;5.65;;
16870;SDS011;8552;48.120;-1.456;2023-05-20T10:18:28;11.23;;;5.57;;
16870;SDS011;8552;48.120;-1.456;2023-05-20T10:21:14;8.95;;;5.20;;
16870;SDS011;8552;48.120;-1.456;2023-05-20T10:23:41;10.40;;;5.70;;
16870;SDS011;8552;48.120;-1.456;2023-05-20T10:26:07;10.82;;;5.53;;
16870;SDS011;8552;48.120;-1.456;2023-05-20T10:28:33;7.53;;;5.55;;
16870;SDS011;8552;48.120;-1.456;2023-05-20T10:31:13;13.20;;;6.07;;
16870;SDS011;8552;48.120;-1.456;2023-05-20T10:33:43;9.10;;;5.10;;
16870;SDS011;8552;48.120;-1.456;2023-05-20T10:36:09;8.90;;;5.40;;
16870;SDS011;8552;48.120;-1.456;2023-05-20T10:38:57;9.70;;;5.13;;
16870;SDS011;8552;48.120;-1.456;2023-05-20T10:41:27;9.57;;;5.55;;
16870;SDS011;8552;48.120;-1.456;2023-05-20T10:44:03;15.52;;;6.15;;
16870;SDS011;8552;48.120;-1.456;2023-05-20T10:46:30;12.65;;;6.15;;
16870;SDS011;8552;48.120;-1.456;2023-05-20T10:48:57;8.73;;;5.18;;
16870;SDS011;8552;48.120;-1.456;2023-05-20T10:51:24;11.93;;;6.05;;
16870;SDS011;8552;48.120;-1.456;2023-05-20T10:53:53;11.57;;;5.50;;
16870;SDS011;8552;48.120;-1.456;2023-05-20T10:56:24;10.57;;;5.38;;
16870;SDS011;8552;48.120;-1.456;2023-05-20T10:58:51;10.27;;;5.28;;
16870;SDS011;8552;48.120;-1.456;2023-05-20T11:01:22;8.00;;;5.68;;
16870;SDS011;8552;48.120;-1.456;2023-05-20T11:03:50;11.43;;;5.75;;
16870;SDS011;8552;48.120;-1.456;2023-05-20T11:06:18;10.38;;;5.35;;
16870;SDS011;8552;48.120;-1.456;2023-05-20T11:08:44;9.55;;;5.85;;
16870;SDS011;8552;48.120;-1.456;2023-05-20T11:11:10;11.82;;;6.60;;
16870;SDS011;8552;48.120;-1.456;2023-05-20T11:13:37;9.07;;;4.90;;
16870;SDS011;8552;48.120;-1.456;2023-05-20T11:16:03;13.30;;;5.82;;
16870;SDS011;8552;48.120;-1.456;2023-05-20T11:18:29;10.05;;;5.50;;
16870;SDS011;8552;48.120;-1.456;2023-05-20T11:20:56;9.15;;;4.97;;
16870;SDS011;8552;48.120;-1.456;2023-05-20T11:23:22;9.27;;;5.07;;
16870;SDS011;8552;48.120;-1.456;2023-05-20T11:25:50;9.75;;;5.25;;
16870;SDS011;8552;48.120;-1.456;2023-05-20T11:28:17;11.50;;;5.80;;
16870;SDS011;8552;48.120;-1.456;2023-05-20T11:30:44;9.70;;;5.18;;
16870;SDS011;8552;48.120;-1.456;2023-05-20T11:33:13;9.35;;;5.10;;
16870;SDS011;8552;48.120;-1.456;2023-05-20T11:35:47;7.18;;;4.82;;
16870;SDS011;8552;48.120;-1.456;2023-05-20T11:38:17;14.05;;;5.13;;
16870;SDS011;8552;48.120;-1.456;2023-05-20T11:40:49;10.00;;;5.32;;
16870;SDS011;8552;48.120;-1.456;2023-05-20T11:43:16;11.52;;;5.25;;
16870;SDS011;8552;48.120;-1.456;2023-05-20T11:45:46;12.27;;;5.38;;
16870;SDS011;8552;48.120;-1.456;2023-05-20T11:48:17;9.85;;;5.30;;
16870;SDS011;8552;48.120;-1.456;2023-05-20T11:50:44;9.45;;;5.18;;
16870;SDS011;8552;48.120;-1.456;2023-05-20T11:53:17;9.07;;;4.85;;
16870;SDS011;8552;48.120;-1.456;2023-05-20T11:55:47;11.13;;;5.53;;
16870;SDS011;8552;48.120;-1.456;2023-05-20T11:58:18;7.30;;;4.47;;
16870;SDS011;8552;48.120;-1.456;2023-05-20T12:00:46;9.27;;;4.93;;
16870;SDS011;8552;48.120;-1.456;2023-05-20T12:03:12;9.05;;;4.72;;
16870;SDS011;8552;48.120;-1.456;2023-05-20T12:05:38;7.40;;;4.00;;
16870;SDS011;8552;48.120;-1.456;2023-05-20T12:08:04;11.73;;;5.30;;
16870;SDS011;8552;48.120;-1.456;2023-05-20T12:10:30;6.47;;;4.03;;
16870;SDS011;8552;48.120;-1.456;2023-05-20T12:12:57;10.40;;;4.18;;
16870;SDS011;8552;48.120;-1.456;2023-05-20T12:15:23;8.55;;;4.80;;
16870;SDS011;8552;48.120;-1.456;2023-05-20T12:17:50;8.18;;;4.60;;
16870;SDS011;8552;48.120;-1.456;2023-05-20T12:20:17;5.07;;;3.90;;
16870;SDS011;8552;48.120;-1.456;2023-05-20T12:22:46;9.15;;;4.10;;
16870;SDS011;8552;48.120;-1.456;2023-05-20T12:25:13;7.47;;;4.25;;
16870;SDS011;8552;48.120;-1.456;2023-05-20T12:27:41;7.40;;;3.97;;
16870;SDS011;8552;48.120;-1.456;2023-05-20T12:30:12;8.15;;;4.72;;
16870;SDS011;8552;48.120;-1.456;2023-05-20T12:32:41;7.20;;;3.97;;
16870;SDS011;8552;48.120;-1.456;2023-05-20T12:35:07;6.10;;;3.28;;
16870;SDS011;8552;48.120;-1.456;2023-05-20T12:37:33;8.23;;;3.90;;
16870;SDS011;8552;48.120;-1.456;2023-05-20T12:40:00;7.40;;;4.30;;
16870;SDS011;8552;48.120;-1.456;2023-05-20T12:42:26;8.15;;;4.20;;
16870;SDS011;8552;48.120;-1.456;2023-05-20T12:44:51;9.95;;;4.22;;
16870;SDS011;8552;48.120;-1.456;2023-05-20T12:47:17;7.50;;;3.95;;
16870;SDS011;8552;48.120;-1.456;2023-05-20T12:49:44;5.68;;;3.90;;
16870;SDS011;8552;48.120;-1.456;2023-05-20T12:52:10;6.03;;;3.83;;
16870;SDS011;8552;48.120;-1.456;2023-05-20T12:54:35;8.00;;;4.13;;
16870;SDS011;8552;48.120;-1.456;2023-05-20T12:57:01;9.68;;;3.60;;
16870;SDS011;8552;48.120;-1.456;2023-05-20T12:59:27;8.57;;;4.30;;
16870;SDS011;8552;48.120;-1.456;2023-05-20T13:01:53;5.93;;;3.78;;
16870;SDS011;8552;48.120;-1.456;2023-05-20T13:04:18;6.03;;;3.53;;
16870;SDS011;8552;48.120;-1.456;2023-05-20T13:06:44;7.28;;;3.40;;
16870;SDS011;8552;48.120;-1.456;2023-05-20T13:09:10;6.22;;;3.53;;
16870;SDS011;8552;48.120;-1.456;2023-05-20T13:11:36;5.32;;;3.78;;
16870;SDS011;8552;48.120;-1.456;2023-05-20T13:14:02;7.13;;;3.95;;
16870;SDS011;8552;48.120;-1.456;2023-05-20T13:16:27;7.45;;;3.70;;
16870;SDS011;8552;48.120;-1.456;2023-05-20T13:18:53;6.38;;;3.08;;
16870;SDS011;8552;48.120;-1.456;2023-05-20T13:21:19;6.28;;;3.20;;
16870;SDS011;8552;48.120;-1.456;2023-05-20T13:23:44;5.80;;;3.47;;
16870;SDS011;8552;48.120;-1.456;2023-05-20T13:26:10;6.93;;;3.35;;
16870;SDS011;8552;48.120;-1.456;2023-05-20T13:28:35;5.43;;;3.28;;
16870;SDS011;8552;48.120;-1.456;2023-05-20T13:31:01;7.93;;;3.50;;
16870;SDS011;8552;48.120;-1.456;2023-05-20T13:33:29;6.93;;;3.53;;
16870;SDS011;8552;48.120;-1.456;2023-05-20T13:35:54;5.53;;;3.72;;
16870;SDS011;8552;48.120;-1.456;2023-05-20T13:38:20;5.70;;;3.35;;
16870;SDS011;8552;48.120;-1.456;2023-05-20T13:40:46;9.02;;;3.60;;
16870;SDS011;8552;48.120;-1.456;2023-05-20T13:43:13;8.02;;;3.50;;
16870;SDS011;8552;48.120;-1.456;2023-05-20T13:45:38;6.70;;;3.70;;
16870;SDS011;8552;48.120;-1.456;2023-05-20T13:48:04;7.13;;;3.00;;
16870;SDS011;8552;48.120;-1.456;2023-05-20T13:50:30;4.07;;;2.90;;
16870;SDS011;8552;48.120;-1.456;2023-05-20T13:52:56;6.22;;;3.28;;
16870;SDS011;8552;48.120;-1.456;2023-05-20T13:55:22;6.85;;;3.22;;
16870;SDS011;8552;48.120;-1.456;2023-05-20T13:57:47;8.68;;;3.47;;
16870;SDS011;8552;48.120;-1.456;2023-05-20T14:00:13;7.93;;;3.33;;
16870;SDS011;8552;48.120;-1.456;2023-05-20T14:02:39;4.82;;;2.55;;
16870;SDS011;8552;48.120;-1.456;2023-05-20T14:05:05;8.23;;;3.72;;
16870;SDS011;8552;48.120;-1.456;2023-05-20T14:07:31;8.00;;;3.40;;
16870;SDS011;8552;48.120;-1.456;2023-05-20T14:09:57;7.05;;;4.07;;
16870;SDS011;8552;48.120;-1.456;2023-05-20T14:12:23;6.88;;;2.88;;
16870;SDS011;8552;48.120;-1.456;2023-05-20T14:14:49;7.10;;;3.65;;
16870;SDS011;8552;48.120;-1.456;2023-05-20T14:17:14;4.85;;;3.10;;
16870;SDS011;8552;48.120;-1.456;2023-05-20T14:19:40;7.82;;;3.20;;
16870;SDS011;8552;48.120;-1.456;2023-05-20T14:22:06;7.93;;;3.50;;
16870;SDS011;8552;48.120;-1.456;2023-05-20T14:24:31;6.90;;;3.15;;
16870;SDS011;8552;48.120;-1.456;2023-05-20T14:26:57;9.23;;;3.55;;
16870;SDS011;8552;48.120;-1.456;2023-05-20T14:29:22;8.88;;;3.60;;
16870;SDS011;8552;48.120;-1.456;2023-05-20T14:31:48;9.32;;;3.95;;
16870;SDS011;8552;48.120;-1.456;2023-05-20T14:34:14;7.45;;;3.38;;
16870;SDS011;8552;48.120;-1.456;2023-05-20T14:36:40;8.15;;;3.88;;
16870;SDS011;8552;48.120;-1.456;2023-05-20T14:39:06;5.70;;;3.67;;
16870;SDS011;8552;48.120;-1.456;2023-05-20T14:41:31;8.38;;;3.60;;